Time;durP1;ratioP1;P1;durP2;ratioP2;P2;SDS_P1;SDS_P2;PMS_P1;PMS_P2;Temp;Humidity;BMP_temperature;BMP_pressure;BME280_temperature;BME280_humidity;BME280_pressure;Samples;Min_cycle;Max_cycle;Signal;HPM_P1;HPM_P2
2024/01/07 00:02:09;;;;;;;7.75;6.15;;;21.90;35.20;;;;;;4946407;29;20497;-60
2024/01/07 00:04:36;;;;;;;8.43;6.25;;;21.90;35.30;;;;;;4949859;29;20412;-59
2024/01/07 00:07:05;;;;;;;7.38;6.18;;;22.00;35.40;;;;;;4948116;29;20051;-59
2024/01/07 00:09:32;;;;;;;6.15;5.32;;;22.00;35.40;;;;;;4939959;29;20059;-59
2024/01/07 00:11:59;;;;;;;7.30;6.00;;;22.10;35.40;;;;;;4946022;29;20062;-57
2024/01/07 00:14:26;;;;;;;7.28;5.72;;;22.10;35.40;;;;;;4949206;28;20074;-60
2024/01/07 00:16:54;;;;;;;8.88;6.07;;;22.10;35.40;;;;;;4950128;28;20059;-60
2024/01/07 00:19:22;;;;;;;8.20;6.30;;;22.10;35.30;;;;;;4946408;29;20051;-59
2024/01/07 00:21:50;;;;;;;7.90;6.68;;;22.20;35.30;;;;;;4945519;29;20066;-59
2024/01/07 00:24:17;;;;;;;8.45;6.20;;;22.20;35.30;;;;;;4947287;29;20051;-61
2024/01/07 00:26:45;;;;;;;7.45;6.20;;;22.20;35.30;;;;;;4947617;29;20594;-60
2024/01/07 00:29:12;;;;;;;7.68;6.35;;;22.20;35.20;;;;;;4949766;29;20058;-60
2024/01/07 00:31:39;;;;;;;7.43;6.60;;;22.20;35.20;;;;;;4949253;29;20534;-59
2024/01/07 00:34:06;;;;;;;7.45;6.45;;;22.20;35.20;;;;;;4947261;29;20051;-60
2024/01/07 00:37:26;;;;;;;8.02;6.68;;;22.20;35.10;;;;;;4945696;29;20059;-59
2024/01/07 00:40:13;;;;;;;9.48;7.00;;;22.20;35.10;;;;;;4947996;29;20396;-59
2024/01/07 00:42:40;;;;;;;8.52;7.03;;;22.20;35.00;;;;;;4948388;28;20528;-59
2024/01/07 00:45:09;;;;;;;7.50;6.70;;;22.20;35.00;;;;;;4949255;29;20051;-60
2024/01/07 00:47:36;;;;;;;8.48;6.60;;;22.10;35.00;;;;;;4944924;29;20056;-59
2024/01/07 00:50:04;;;;;;;8.15;6.60;;;22.20;35.00;;;;;;4948688;29;20059;-60
2024/01/07 00:52:31;;;;;;;8.13;6.97;;;22.10;35.00;;;;;;4948050;29;20062;-59
2024/01/07 00:54:59;;;;;;;7.90;6.82;;;22.10;35.00;;;;;;4945989;29;20058;-58
2024/01/07 00:57:28;;;;;;;8.70;7.18;;;22.10;35.00;;;;;;4948157;29;20055;-59
2024/01/07 00:59:55;;;;;;;8.25;7.00;;;22.00;34.90;;;;;;4948882;29;20044;-59
2024/01/07 01:02:22;;;;;;;8.60;6.95;;;22.10;35.00;;;;;;4948807;29;20055;-59
2024/01/07 01:04:49;;;;;;;7.72;6.95;;;22.00;34.90;;;;;;4947734;28;20054;-58
2024/01/07 01:07:17;;;;;;;7.57;6.72;;;22.00;34.90;;;;;;4944654;29;20516;-58
2024/01/07 01:12:24;;;;;;;8.27;6.88;;;21.90;35.00;;;;;;5877987;23;20063;-59
2024/01/07 01:14:53;;;;;;;10.90;6.57;;;22.00;35.10;;;;;;4984292;23;20521;-59
2024/01/07 01:17:20;;;;;;;7.80;6.57;;;22.00;35.20;;;;;;4971828;28;20051;-58
2024/01/07 01:19:47;;;;;;;8.60;6.70;;;22.00;35.20;;;;;;4971510;28;20051;-57
2024/01/07 01:22:14;;;;;;;7.53;6.25;;;22.00;35.20;;;;;;4966907;28;20514;-59
2024/01/07 01:24:42;;;;;;;8.07;6.80;;;22.10;35.20;;;;;;4972524;28;20055;-58
2024/01/07 01:27:10;;;;;;;8.60;7.00;;;22.10;35.10;;;;;;4969577;28;20483;-59
2024/01/07 01:29:37;;;;;;;8.27;6.68;;;22.20;35.10;;;;;;4969623;28;20055;-57
2024/01/07 01:32:07;;;;;;;8.15;6.65;;;22.20;35.10;;;;;;4971691;28;20537;-57
2024/01/07 01:34:34;;;;;;;8.55;6.80;;;22.20;35.00;;;;;;4967961;28;20055;-60
2024/01/07 01:37:01;;;;;;;8.07;6.88;;;22.20;35.00;;;;;;4969658;28;20062;-59
2024/01/07 01:39:29;;;;;;;8.57;6.43;;;22.20;35.00;;;;;;4969837;28;20058;-58
2024/01/07 01:41:58;;;;;;;8.32;6.55;;;22.20;34.90;;;;;;4972530;28;21158;-59
2024/01/07 01:44:27;;;;;;;7.68;6.82;;;22.20;34.90;;;;;;4971950;28;20050;-58
2024/01/07 01:46:54;;;;;;;7.50;6.70;;;22.20;34.80;;;;;;4971568;28;20219;-59
2024/01/07 01:49:23;;;;;;;6.53;5.55;;;22.20;34.80;;;;;;4968841;28;20423;-59
2024/01/07 01:51:52;;;;;;;9.80;6.15;;;22.20;34.80;;;;;;4970023;28;20058;-59
2024/01/07 01:54:20;;;;;;;8.18;6.65;;;22.20;34.80;;;;;;4971524;28;20065;-59
2024/01/07 01:56:48;;;;;;;7.05;6.35;;;22.20;34.80;;;;;;4970786;28;20384;-58
2024/01/07 01:59:16;;;;;;;6.55;5.75;;;22.10;34.70;;;;;;4970197;28;20055;-55
2024/01/07 02:01:43;;;;;;;6.78;5.82;;;22.10;34.70;;;;;;4967993;28;20055;-58
2024/01/07 02:04:10;;;;;;;7.22;5.93;;;22.10;34.70;;;;;;4970253;28;20054;-58
2024/01/07 02:06:39;;;;;;;8.27;6.57;;;22.10;34.70;;;;;;4970304;28;20503;-57
2024/01/07 02:09:06;;;;;;;6.60;5.55;;;22.10;34.70;;;;;;4970293;28;20058;-59
2024/01/07 02:11:33;;;;;;;6.53;5.75;;;22.00;34.60;;;;;;4960878;28;20051;-58
2024/01/07 02:14:01;;;;;;;6.20;5.15;;;22.00;35.10;;;;;;4960508;28;20051;-59
2024/01/07 02:16:28;;;;;;;7.47;6.10;;;22.00;34.60;;;;;;4956985;28;20066;-58
2024/01/07 02:19:13;;;;;;;6.07;5.43;;;22.00;34.60;;;;;;4947904;28;20488;-58
2024/01/07 02:21:41;;;;;;;7.45;6.15;;;21.90;34.60;;;;;;4946839;28;20062;-57
2024/01/07 02:24:16;;;;;;;7.60;5.63;;;21.90;34.70;;;;;;4944977;28;20059;-59
2024/01/07 02:26:43;;;;;;;6.32;5.05;;;22.00;34.90;;;;;;4946465;28;20054;-59
2024/01/07 02:29:10;;;;;;;6.88;5.60;;;21.90;34.80;;;;;;4946540;28;20062;-59
2024/01/07 02:31:38;;;;;;;6.40;5.40;;;22.00;34.90;;;;;;4949816;28;20062;-58
2024/01/07 02:34:05;;;;;;;5.93;5.28;;;22.00;35.00;;;;;;4950121;28;20054;-60
2024/01/07 02:36:33;;;;;;;5.40;4.85;;;22.00;35.00;;;;;;4940710;28;20411;-60
2024/01/07 02:39:00;;;;;;;7.32;5.60;;;22.00;35.00;;;;;;4948560;28;20055;-60
2024/01/07 02:41:29;;;;;;;5.53;4.85;;;22.10;35.00;;;;;;4950175;29;20050;-59
2024/01/07 02:43:56;;;;;;;6.10;5.03;;;22.10;34.90;;;;;;4954200;28;20051;-59
2024/01/07 02:46:26;;;;;;;7.13;5.50;;;22.10;34.90;;;;;;4950544;28;20051;-61
2024/01/07 02:48:53;;;;;;;6.28;5.20;;;22.10;34.90;;;;;;4951400;28;20059;-59
2024/01/07 02:51:20;;;;;;;6.70;5.30;;;22.10;34.80;;;;;;4950074;29;20051;-60
2024/01/07 02:53:47;;;;;;;6.90;5.45;;;22.10;34.80;;;;;;4950749;28;20070;-58
2024/01/07 02:56:14;;;;;;;5.90;5.00;;;22.10;34.80;;;;;;4954397;28;20051;-61
2024/01/07 02:58:43;;;;;;;6.75;5.38;;;22.10;34.70;;;;;;4949256;28;20066;-60
2024/01/07 03:01:11;;;;;;;6.43;5.30;;;22.10;34.70;;;;;;4952605;28;20078;-60
2024/01/07 03:03:38;;;;;;;6.15;5.03;;;22.10;34.70;;;;;;4946678;28;20494;-60
2024/01/07 03:06:05;;;;;;;6.30;5.30;;;22.10;34.70;;;;;;4945785;28;20047;-61
2024/01/07 03:08:33;;;;;;;6.25;5.20;;;22.10;34.70;;;;;;4952896;28;20051;-60
2024/01/07 03:11:05;;;;;;;6.28;5.13;;;22.10;34.70;;;;;;4948229;28;20051;-61
2024/01/07 03:13:32;;;;;;;6.45;4.80;;;22.10;34.60;;;;;;4952940;28;20054;-57
2024/01/07 03:16:01;;;;;;;5.80;4.75;;;22.00;34.60;;;;;;4949047;28;20476;-59
2024/01/07 03:18:29;;;;;;;6.03;5.13;;;22.00;34.60;;;;;;4956633;28;20725;-59
2024/01/07 03:20:56;;;;;;;6.25;4.80;;;22.00;35.10;;;;;;4948757;28;20051;-57
2024/01/07 03:23:23;;;;;;;5.38;4.75;;;22.00;34.60;;;;;;4952312;28;20062;-60
2024/01/07 03:25:50;;;;;;;5.22;4.43;;;22.00;34.60;;;;;;4952425;28;20066;-60
2024/01/07 03:28:17;;;;;;;5.30;4.35;;;21.90;34.60;;;;;;4950231;28;20070;-60
2024/01/07 03:30:44;;;;;;;6.30;4.60;;;21.90;34.70;;;;;;4948595;28;20058;-59
2024/01/07 03:33:13;;;;;;;6.30;5.00;;;21.90;34.80;;;;;;4947994;28;20066;-60
2024/01/07 03:35:40;;;;;;;6.35;5.07;;;22.00;34.90;;;;;;4948505;28;20055;-60
2024/01/07 03:38:07;;;;;;;5.72;4.65;;;22.00;34.90;;;;;;4952625;28;20066;-60
2024/01/07 03:40:35;;;;;;;5.85;4.82;;;22.00;34.90;;;;;;4952608;28;20051;-59
2024/01/07 03:43:02;;;;;;;5.38;4.78;;;22.10;34.90;;;;;;4947781;28;20074;-60
2024/01/07 03:45:29;;;;;;;4.97;4.40;;;22.10;34.90;;;;;;4950860;28;20055;-59
2024/01/07 03:47:56;;;;;;;5.15;4.38;;;22.10;34.80;;;;;;4951546;28;20164;-60
2024/01/07 03:50:25;;;;;;;4.82;4.32;;;22.10;34.70;;;;;;4949144;28;20055;-61
2024/01/07 03:52:52;;;;;;;6.00;4.47;;;22.10;34.70;;;;;;4952301;28;20058;-58
2024/01/07 03:55:19;;;;;;;5.47;4.57;;;22.10;34.70;;;;;;4953402;28;20495;-61
2024/01/07 03:57:46;;;;;;;6.93;4.55;;;22.20;34.70;;;;;;4948853;28;20063;-60
2024/01/07 04:00:14;;;;;;;6.38;4.57;;;22.10;34.50;;;;;;4955147;28;20047;-61
2024/01/07 04:02:41;;;;;;;4.35;3.78;;;22.10;34.80;;;;;;4950138;28;20066;-58
2024/01/07 04:05:09;;;;;;;4.68;4.00;;;22.20;34.50;;;;;;4952001;28;20136;-60
2024/01/07 04:07:38;;;;;;;4.43;3.88;;;22.10;34.40;;;;;;4947130;29;20144;-61
2024/01/07 04:10:06;;;;;;;4.10;3.60;;;22.20;34.50;;;;;;4948719;28;20051;-60
2024/01/07 04:12:33;;;;;;;4.10;3.70;;;22.10;34.40;;;;;;4950889;28;20058;-60
2024/01/07 04:15:00;;;;;;;4.68;4.15;;;22.10;34.40;;;;;;4949315;28;20066;-60
2024/01/07 04:17:27;;;;;;;4.45;3.60;;;22.10;34.40;;;;;;4953488;28;20070;-60
2024/01/07 04:19:54;;;;;;;5.60;4.20;;;22.10;34.40;;;;;;4949101;28;20058;-60
2024/01/07 04:22:21;;;;;;;3.83;3.33;;;22.10;34.40;;;;;;4954772;28;20248;-60
2024/01/07 04:24:50;;;;;;;4.28;3.53;;;22.00;34.40;;;;;;4945011;28;22025;-61
2024/01/07 04:27:17;;;;;;;4.30;3.50;;;22.00;34.40;;;;;;4939938;29;20055;-60
2024/01/07 04:29:44;;;;;;;4.18;3.78;;;22.00;34.40;;;;;;4951141;28;20062;-61
2024/01/07 04:32:11;;;;;;;4.75;3.55;;;22.00;34.40;;;;;;4949677;28;20420;-60
2024/01/07 04:34:38;;;;;;;3.90;3.50;;;22.00;34.40;;;;;;4948335;28;20711;-60
2024/01/07 04:37:05;;;;;;;2.97;2.67;;;21.90;34.50;;;;;;4946230;28;20129;-60
2024/01/07 04:39:32;;;;;;;22.42;3.75;;;21.90;34.60;;;;;;4947392;28;20055;-60
2024/01/07 04:42:01;;;;;;;3.92;3.05;;;21.90;34.70;;;;;;4950420;28;20060;-61
2024/01/07 04:44:28;;;;;;;19.63;3.10;;;21.90;34.80;;;;;;4954890;28;20701;-60
2024/01/07 04:46:56;;;;;;;21.98;4.15;;;22.00;34.90;;;;;;4956589;28;20057;-58
2024/01/07 04:49:23;;;;;;;8.85;3.45;;;22.00;35.10;;;;;;4951725;28;20059;-60
2024/01/07 04:51:50;;;;;;;6.82;2.83;;;22.00;35.10;;;;;;4949225;28;20054;-58
2024/01/07 04:54:18;;;;;;;10.75;3.50;;;22.10;35.20;;;;;;4948118;28;20059;-58
2024/01/07 04:56:45;;;;;;;4.57;3.00;;;22.10;35.20;;;;;;4955238;29;20059;-59
2024/01/07 04:59:14;;;;;;;9.45;3.20;;;22.10;35.10;;;;;;4951692;29;20051;-59
2024/01/07 05:01:41;;;;;;;3.35;3.00;;;22.20;35.10;;;;;;4952008;29;20051;-59
2024/01/07 05:04:08;;;;;;;4.28;3.40;;;22.20;35.00;;;;;;4948672;28;20047;-59
2024/01/07 05:06:36;;;;;;;10.80;3.00;;;22.20;34.90;;;;;;4950341;28;20066;-59
2024/01/07 05:09:03;;;;;;;5.32;3.10;;;22.30;34.90;;;;;;4946927;28;20443;-58
2024/01/07 05:11:31;;;;;;;5.53;2.95;;;22.20;34.80;;;;;;4943616;29;20491;-59
2024/01/07 05:13:58;;;;;;;4.80;3.05;;;22.20;34.70;;;;;;4950523;28;20055;-58
2024/01/07 05:16:27;;;;;;;5.00;3.17;;;22.30;34.80;;;;;;4951416;28;20491;-58
2024/01/07 05:18:54;;;;;;;4.97;2.90;;;22.20;34.70;;;;;;4947451;28;20055;-55
2024/01/07 05:21:22;;;;;;;4.53;3.40;;;22.20;34.60;;;;;;4949101;29;20506;-59
2024/01/07 05:23:49;;;;;;;3.72;2.97;;;22.20;34.60;;;;;;4949731;28;20055;-58
2024/01/07 05:26:16;;;;;;;5.10;3.35;;;22.20;34.60;;;;;;4947279;28;20054;-59
2024/01/07 05:28:43;;;;;;;4.55;3.30;;;22.20;34.60;;;;;;4944008;29;20062;-58
2024/01/07 05:31:15;;;;;;;6.22;3.60;;;22.20;34.60;;;;;;4945400;29;20058;-58
2024/01/07 05:33:44;;;;;;;5.50;3.40;;;22.10;34.40;;;;;;4943373;29;20539;-58
2024/01/07 05:36:11;;;;;;;4.25;3.10;;;22.20;34.50;;;;;;4942407;28;20523;-60
2024/01/07 05:38:38;;;;;;;5.07;3.50;;;22.10;34.40;;;;;;4950462;28;20411;-60
2024/01/07 05:41:06;;;;;;;4.18;3.33;;;22.10;34.40;;;;;;4946699;29;20070;-57
2024/01/07 05:43:33;;;;;;;4.07;3.50;;;22.10;34.40;;;;;;4942784;29;20059;-58
2024/01/07 05:46:00;;;;;;;3.72;3.08;;;22.00;34.30;;;;;;4947625;29;20055;-58
2024/01/07 05:48:27;;;;;;;4.07;3.05;;;22.00;34.30;;;;;;4946581;28;20059;-59
2024/01/07 05:50:56;;;;;;;4.15;3.45;;;22.00;34.40;;;;;;4947709;28;20047;-58
2024/01/07 05:53:23;;;;;;;3.85;3.10;;;22.00;34.40;;;;;;4946241;28;20062;-59
2024/01/07 05:55:50;;;;;;;5.07;4.00;;;22.00;34.50;;;;;;4949814;28;20070;-59
2024/01/07 05:58:17;;;;;;;4.38;3.55;;;22.00;34.50;;;;;;4950380;28;20059;-59
2024/01/07 06:00:44;;;;;;;7.07;3.67;;;22.00;34.70;;;;;;4948115;28;20055;-57
2024/01/07 06:03:11;;;;;;;11.02;3.50;;;22.00;34.70;;;;;;4950830;28;20055;-58
2024/01/07 06:05:39;;;;;;;12.98;3.70;;;22.10;34.90;;;;;;4945073;29;20061;-59
2024/01/07 06:08:08;;;;;;;4.82;3.58;;;22.10;34.90;;;;;;4948351;29;20514;-59
2024/01/07 06:10:35;;;;;;;4.88;4.13;;;22.10;34.80;;;;;;4950368;29;20051;-55
2024/01/07 06:13:03;;;;;;;17.17;3.90;;;22.20;34.80;;;;;;4946259;29;20055;-59
2024/01/07 06:15:30;;;;;;;6.38;4.20;;;22.20;34.80;;;;;;4951992;28;20066;-58
2024/01/07 06:17:57;;;;;;;33.17;19.92;;;22.20;34.80;;;;;;4950082;28;20403;-56
2024/01/07 06:20:24;;;;;;;90.05;53.38;;;22.30;34.60;;;;;;4951795;28;20513;-56
2024/01/07 06:22:52;;;;;;;78.38;42.50;;;22.30;34.40;;;;;;4950225;28;20059;-60
2024/01/07 06:25:21;;;;;;;40.33;24.88;;;22.40;34.40;;;;;;4948274;28;20531;-59
2024/01/07 06:27:48;;;;;;;37.53;20.33;;;22.40;34.40;;;;;;4952722;28;20051;-59
2024/01/07 06:30:16;;;;;;;25.65;16.50;;;22.40;34.40;;;;;;4951592;28;20051;-59
2024/01/07 06:32:44;;;;;;;28.15;15.30;;;22.50;34.30;;;;;;4949775;28;20058;-57
2024/01/07 06:35:11;;;;;;;23.25;15.02;;;22.40;34.30;;;;;;4945882;28;20055;-56
2024/01/07 06:37:38;;;;;;;22.73;14.55;;;22.40;34.20;;;;;;4942532;28;20055;-57
2024/01/07 06:40:07;;;;;;;21.65;13.45;;;22.40;34.20;;;;;;4948450;28;20058;-57
2024/01/07 06:42:36;;;;;;;19.08;12.77;;;22.50;34.20;;;;;;4945904;28;20055;-56
2024/01/07 06:45:04;;;;;;;18.45;12.20;;;22.40;34.20;;;;;;4953707;28;20051;-56
2024/01/07 06:47:31;;;;;;;17.55;11.68;;;22.40;34.20;;;;;;4950493;28;20491;-57
2024/01/07 06:49:58;;;;;;;16.83;11.63;;;22.40;34.10;;;;;;4942040;28;20054;-57
2024/01/07 06:52:24;;;;;;;15.40;10.40;;;22.40;34.10;;;;;;4946960;28;20058;-56
2024/01/07 06:54:51;;;;;;;15.93;10.30;;;22.40;34.10;;;;;;4948451;28;20128;-54
2024/01/07 06:57:18;;;;;;;14.85;9.63;;;22.40;34.10;;;;;;4952419;28;20078;-56
2024/01/07 06:59:47;;;;;;;14.05;9.75;;;22.40;34.10;;;;;;4947303;28;20051;-56
2024/01/07 07:02:14;;;;;;;66.82;38.30;;;22.30;34.10;;;;;;4948907;28;20051;-54
2024/01/07 07:04:42;;;;;;;96.53;56.10;;;22.30;34.00;;;;;;4947733;28;20054;-56
2024/01/07 07:07:09;;;;;;;66.68;38.05;;;22.30;34.00;;;;;;4952736;28;20062;-58
2024/01/07 07:09:36;;;;;;;44.00;27.80;;;22.20;33.90;;;;;;4946931;28;20055;-56
2024/01/07 07:12:05;;;;;;;49.95;29.95;;;22.20;33.90;;;;;;4954469;28;20480;-56
2024/01/07 07:14:33;;;;;;;49.35;29.65;;;22.20;34.00;;;;;;4950713;28;20062;-56
2024/01/07 07:17:01;;;;;;;35.83;23.00;;;22.20;34.00;;;;;;4948200;28;20051;-58
2024/01/07 07:19:28;;;;;;;33.95;19.52;;;22.20;34.10;;;;;;4948092;28;20062;-57
2024/01/07 07:21:57;;;;;;;37.72;19.08;;;22.10;34.00;;;;;;4944647;28;20154;-58
2024/01/07 07:24:24;;;;;;;26.95;17.20;;;22.10;34.10;;;;;;4947676;28;20459;-57
2024/01/07 07:26:52;;;;;;;33.38;17.90;;;22.10;34.00;;;;;;4953561;28;20435;-58
2024/01/07 07:29:19;;;;;;;26.10;17.02;;;22.10;34.10;;;;;;4947001;28;20055;-57
2024/01/07 07:31:46;;;;;;;27.00;16.25;;;22.00;34.10;;;;;;4950841;28;20059;-57
2024/01/07 07:34:15;;;;;;;30.55;17.02;;;22.00;34.10;;;;;;4951368;28;20070;-57
2024/01/07 07:36:44;;;;;;;22.70;15.18;;;22.00;34.20;;;;;;4944412;28;20052;-56
2024/01/07 07:39:13;;;;;;;21.50;14.65;;;22.00;34.30;;;;;;4946023;28;20051;-59
2024/01/07 07:41:40;;;;;;;20.08;13.40;;;22.00;34.40;;;;;;4946146;28;20074;-59
2024/01/07 07:44:07;;;;;;;19.10;12.45;;;22.00;34.40;;;;;;4950214;28;20058;-59
2024/01/07 07:46:35;;;;;;;17.42;11.38;;;22.00;34.50;;;;;;4948444;28;20051;-60
2024/01/07 07:49:02;;;;;;;17.08;11.10;;;22.10;34.60;;;;;;4951644;28;20051;-59
2024/01/07 07:51:31;;;;;;;14.85;10.38;;;22.10;34.50;;;;;;4948233;28;20070;-60
2024/01/07 07:53:58;;;;;;;14.43;9.63;;;22.20;34.60;;;;;;4952980;28;20058;-60
2024/01/07 07:56:25;;;;;;;16.10;10.45;;;22.20;34.50;;;;;;4946905;28;20059;-59
2024/01/07 07:58:52;;;;;;;12.40;8.80;;;22.30;34.50;;;;;;4946994;28;20055;-59
2024/01/07 08:01:19;;;;;;;16.27;9.18;;;22.30;34.40;;;;;;4943808;28;20126;-59
2024/01/07 08:03:47;;;;;;;16.15;9.82;;;22.30;34.40;;;;;;4942464;28;20046;-58
2024/01/07 08:06:14;;;;;;;13.82;8.00;;;22.30;34.40;;;;;;4948991;28;20047;-58
2024/01/07 08:08:43;;;;;;;10.40;7.18;;;22.30;34.40;;;;;;4952370;28;20065;-59
2024/01/07 08:11:10;;;;;;;11.48;8.02;;;22.40;34.50;;;;;;4944034;28;20087;-58
2024/01/07 08:13:38;;;;;;;13.70;7.93;;;22.40;34.50;;;;;;4944734;28;20055;-59
2024/01/07 08:16:06;;;;;;;10.13;7.25;;;22.50;34.50;;;;;;4949316;28;20443;-58
2024/01/07 08:18:33;;;;;;;17.35;7.15;;;22.50;34.50;;;;;;4945194;28;20051;-56
2024/01/07 08:21:01;;;;;;;20.83;7.85;;;22.50;34.60;;;;;;4951671;28;20488;-55
2024/01/07 08:23:28;;;;;;;21.85;7.65;;;22.50;34.60;;;;;;4947290;28;20051;-57
2024/01/07 08:25:57;;;;;;;16.77;7.78;;;22.60;34.60;;;;;;4948809;28;20514;-57
2024/01/07 08:28:25;;;;;;;17.50;7.15;;;22.60;34.60;;;;;;4945267;28;20606;-57
2024/01/07 08:30:53;;;;;;;15.25;7.05;;;22.60;34.60;;;;;;4949036;28;20055;-57
2024/01/07 08:33:20;;;;;;;20.77;7.43;;;22.60;34.50;;;;;;4950534;28;20054;-58
2024/01/07 08:35:47;;;;;;;10.70;6.18;;;22.60;34.40;;;;;;4951017;28;20081;-59
2024/01/07 08:38:15;;;;;;;9.43;6.15;;;22.60;34.40;;;;;;4945284;28;20055;-57
2024/01/07 08:40:42;;;;;;;12.18;6.70;;;22.60;34.30;;;;;;4948703;28;20408;-57
2024/01/07 08:43:11;;;;;;;10.43;6.25;;;22.60;34.30;;;;;;4950331;28;20044;-60
2024/01/07 08:45:38;;;;;;;11.38;5.72;;;22.60;34.80;;;;;;4949601;28;20496;-60
2024/01/07 08:48:07;;;;;;;11.13;6.18;;;22.60;34.30;;;;;;4951707;28;20055;-60
2024/01/07 08:50:34;;;;;;;12.05;6.45;;;22.50;34.30;;;;;;4943508;28;20063;-60
2024/01/07 08:53:01;;;;;;;10.27;5.68;;;22.50;34.30;;;;;;4943424;28;20055;-60
2024/01/07 08:55:28;;;;;;;8.02;5.38;;;22.50;34.30;;;;;;4952042;28;20063;-58
2024/01/07 08:57:56;;;;;;;9.48;6.15;;;22.50;34.30;;;;;;4945557;28;20056;-59
2024/01/07 09:00:26;;;;;;;9.13;5.68;;;22.40;34.30;;;;;;4950565;28;20503;-59
2024/01/07 09:02:54;;;;;;;11.35;5.88;;;22.40;34.20;;;;;;4951029;28;20056;-58
2024/01/07 09:05:21;;;;;;;7.88;5.53;;;22.40;34.30;;;;;;4949120;28;20055;-56
2024/01/07 09:07:48;;;;;;;13.43;5.60;;;22.40;34.30;;;;;;4943438;28;20094;-58
2024/01/07 09:10:15;;;;;;;8.07;5.22;;;22.40;34.40;;;;;;4948135;28;20055;-56
2024/01/07 09:12:43;;;;;;;7.50;4.78;;;22.30;34.50;;;;;;4946853;28;20047;-56
2024/01/07 09:15:10;;;;;;;9.90;5.00;;;22.40;34.50;;;;;;4948402;28;20400;-57
2024/01/07 09:17:39;;;;;;;7.53;4.70;;;22.40;34.60;;;;;;4950610;28;20290;-57
2024/01/07 09:20:08;;;;;;;6.97;4.40;;;22.40;34.50;;;;;;4942417;28;20500;-57
2024/01/07 09:22:35;;;;;;;6.88;4.68;;;22.50;34.50;;;;;;4941692;28;20054;-57
2024/01/07 09:25:03;;;;;;;6.25;4.78;;;22.50;34.50;;;;;;4946449;28;20063;-57
2024/01/07 09:27:30;;;;;;;7.25;4.30;;;22.50;34.50;;;;;;4944021;28;20521;-56
2024/01/07 09:29:58;;;;;;;6.07;4.35;;;22.50;34.40;;;;;;4953362;28;20511;-56
2024/01/07 09:32:25;;;;;;;5.55;4.63;;;22.50;34.40;;;;;;4951795;28;20066;-57
2024/01/07 09:34:54;;;;;;;7.05;4.78;;;22.50;34.30;;;;;;4949658;28;20508;-57
2024/01/07 09:37:21;;;;;;;6.10;4.68;;;22.50;34.30;;;;;;4949461;28;20492;-56
2024/01/07 09:39:49;;;;;;;5.85;4.30;;;22.50;34.30;;;;;;4949770;28;20400;-59
2024/01/07 09:42:19;;;;;;;5.47;4.20;;;22.50;34.40;;;;;;4949924;28;20059;-59
2024/01/07 09:44:47;;;;;;;6.50;4.10;;;22.50;34.40;;;;;;4953105;28;20063;-58
2024/01/07 09:47:15;;;;;;;10.73;4.45;;;22.50;34.40;;;;;;4953604;28;20047;-58
2024/01/07 09:49:44;;;;;;;72.05;40.50;;;22.50;34.40;;;;;;4948162;28;20059;-59
2024/01/07 09:52:12;;;;;;;120.82;65.13;;;22.50;34.20;;;;;;4951263;28;20492;-59
2024/01/07 09:54:41;;;;;;;69.40;40.20;;;22.50;34.10;;;;;;4944935;28;20059;-59
2024/01/07 09:57:09;;;;;;;44.95;26.88;;;22.50;34.70;;;;;;4952114;28;20541;-59
2024/01/07 09:59:37;;;;;;;41.50;22.90;;;22.40;34.20;;;;;;4948678;28;20420;-58
2024/01/07 10:02:04;;;;;;;31.13;18.58;;;22.40;34.20;;;;;;4949025;28;20062;-59
2024/01/07 10:04:32;;;;;;;27.77;17.95;;;22.40;34.20;;;;;;4953028;28;20664;-59
2024/01/07 10:06:59;;;;;;;29.50;15.45;;;22.40;34.20;;;;;;4949760;28;20054;-59
2024/01/07 10:09:33;;;;;;;25.77;16.27;;;22.30;34.20;;;;;;4949415;28;20067;-57
2024/01/07 10:12:00;;;;;;;39.13;17.45;;;22.30;34.30;;;;;;4950869;28;20078;-58
2024/01/07 10:14:28;;;;;;;26.30;15.05;;;22.30;34.40;;;;;;4948535;28;20055;-60
2024/01/07 10:16:55;;;;;;;22.73;13.38;;;22.30;34.40;;;;;;4947972;28;20062;-58
2024/01/07 10:19:23;;;;;;;23.30;13.10;;;22.30;34.50;;;;;;4948816;28;20070;-58
2024/01/07 10:22:00;;;;;;;20.08;12.23;;;22.30;34.60;;;;;;4955709;28;20527;-57
2024/01/07 10:24:35;;;;;;;20.80;12.65;;;22.30;35.10;;;;;;4949091;28;20051;-56
2024/01/07 10:27:04;;;;;;;30.60;12.55;;;22.40;34.60;;;;;;4948462;28;20051;-57
2024/01/07 10:29:32;;;;;;;37.00;12.48;;;22.40;34.40;;;;;;4949634;28;20066;-55
2024/01/07 10:32:02;;;;;;;25.67;10.68;;;22.50;34.40;;;;;;4948493;28;20058;-57
2024/01/07 10:34:31;;;;;;;18.58;10.82;;;22.50;34.40;;;;;;4947495;28;20373;-56
2024/01/07 10:37:00;;;;;;;23.90;10.07;;;22.40;34.40;;;;;;4942385;28;20412;-57
2024/01/07 10:39:27;;;;;;;20.02;10.35;;;22.50;34.50;;;;;;4951910;28;20067;-56
2024/01/07 10:41:57;;;;;;;50.90;12.88;;;22.50;34.50;;;;;;4947920;28;20062;-57
2024/01/07 10:44:27;;;;;;;38.00;10.13;;;22.50;34.50;;;;;;4947895;28;20482;-57
2024/01/07 10:46:56;;;;;;;18.92;9.95;;;22.50;34.50;;;;;;4949810;28;20067;-57
2024/01/07 10:49:24;;;;;;;19.80;9.18;;;22.50;34.50;;;;;;4945402;28;20047;-57
2024/01/07 10:52:03;;;;;;;22.15;9.90;;;22.50;34.50;;;;;;4951369;28;20055;-57
2024/01/07 10:54:33;;;;;;;36.83;9.38;;;22.50;34.40;;;;;;4956871;28;20062;-58
2024/01/07 10:57:05;;;;;;;22.73;9.18;;;22.50;34.50;;;;;;4949759;28;20058;-57
2024/01/07 10:59:37;;;;;;;21.40;8.05;;;22.50;34.00;;;;;;4948855;28;20066;-57
2024/01/07 11:02:04;;;;;;;21.85;8.82;;;22.40;33.40;;;;;;4945521;28;20051;-57
2024/01/07 11:04:44;;;;;;;14.05;7.45;;;22.40;32.90;;;;;;4945344;28;20047;-57
2024/01/07 11:07:20;;;;;;;21.27;8.07;;;22.30;32.40;;;;;;4944097;28;20051;-57
2024/01/07 11:10:03;;;;;;;31.27;17.17;;;22.30;32.40;;;;;;4946475;28;20055;-57
2024/01/07 11:12:32;;;;;;;82.18;40.45;;;22.20;32.20;;;;;;4947335;28;20055;-59
2024/01/07 11:15:03;;;;;;;69.35;39.70;;;22.20;32.50;;;;;;4944670;28;20062;-55
2024/01/07 11:17:46;;;;;;;55.53;30.95;;;22.10;32.80;;;;;;4946310;28;20047;-57
2024/01/07 11:20:20;;;;;;;35.35;22.27;;;22.10;33.10;;;;;;4944234;28;20059;-58
2024/01/07 11:22:47;;;;;;;30.67;17.65;;;22.00;33.30;;;;;;4942502;28;20051;-58
2024/01/07 11:25:31;;;;;;;36.58;17.75;;;22.00;33.50;;;;;;4948731;28;20074;-59
2024/01/07 11:27:59;;;;;;;26.88;14.50;;;22.00;33.70;;;;;;4950630;28;20436;-62
2024/01/07 11:30:29;;;;;;;21.90;12.05;;;22.10;33.90;;;;;;4952575;28;20055;-61
2024/01/07 11:32:59;;;;;;;19.00;11.73;;;22.10;33.90;;;;;;4948573;28;20051;-63
2024/01/07 11:35:57;;;;;;;16.30;10.57;;;22.10;34.00;;;;;;4949412;28;20066;-62
2024/01/07 11:38:24;;;;;;;23.20;11.45;;;22.20;34.00;;;;;;4942654;28;20047;-63
2024/01/07 11:40:52;;;;;;;17.48;9.82;;;22.20;34.00;;;;;;4945275;28;20070;-61
2024/01/07 11:43:19;;;;;;;22.25;9.68;;;22.30;34.00;;;;;;4952946;28;20054;-61
2024/01/07 11:45:51;;;;;;;18.48;9.25;;;22.30;34.10;;;;;;4950274;28;20066;-61
2024/01/07 11:48:19;;;;;;;22.25;8.95;;;22.30;34.20;;;;;;4951692;28;20630;-61
2024/01/07 11:50:46;;;;;;;14.63;8.02;;;22.30;34.30;;;;;;4945660;28;20059;-60
2024/01/07 11:53:13;;;;;;;20.25;8.93;;;22.30;34.30;;;;;;4949355;28;20059;-60
2024/01/07 11:55:41;;;;;;;16.58;8.57;;;22.30;34.20;;;;;;4946548;29;20063;-60
2024/01/07 11:58:09;;;;;;;18.42;8.35;;;22.30;34.20;;;;;;4940805;28;20634;-60
2024/01/07 12:00:36;;;;;;;41.58;8.68;;;22.30;34.20;;;;;;4955573;28;20055;-61
2024/01/07 12:03:05;;;;;;;25.80;7.32;;;22.30;34.30;;;;;;4941448;28;20587;-60
2024/01/07 12:05:32;;;;;;;26.77;7.93;;;22.30;34.30;;;;;;4936697;28;20066;-60
2024/01/07 12:08:01;;;;;;;16.58;5.85;;;22.30;34.40;;;;;;4947294;29;20081;-60
2024/01/07 12:10:30;;;;;;;10.55;5.82;;;22.30;34.30;;;;;;4948091;28;20059;-60
2024/01/07 12:12:57;;;;;;;19.90;6.88;;;22.20;34.30;;;;;;4947860;28;20055;-60
2024/01/07 12:15:25;;;;;;;21.50;6.03;;;22.30;34.30;;;;;;4947427;29;20067;-60
2024/01/07 12:18:01;;;;;;;10.73;5.47;;;22.20;34.20;;;;;;4953967;28;20059;-60
2024/01/07 12:20:29;;;;;;;14.85;5.65;;;22.20;34.20;;;;;;4949643;29;20055;-60
2024/01/07 12:22:59;;;;;;;9.48;5.18;;;22.20;34.20;;;;;;4948969;29;20058;-59
2024/01/07 12:25:26;;;;;;;8.15;5.60;;;22.20;34.30;;;;;;4950706;29;20513;-60
2024/01/07 12:27:53;;;;;;;8.25;5.13;;;22.20;34.30;;;;;;4952134;29;20055;-60
2024/01/07 12:30:21;;;;;;;6.95;4.60;;;22.20;34.40;;;;;;4953891;28;20059;-60
2024/01/07 12:32:52;;;;;;;6.93;4.43;;;22.20;34.40;;;;;;4948893;28;20507;-59
2024/01/07 12:35:19;;;;;;;7.28;4.22;;;22.20;34.30;;;;;;4948230;28;20058;-57
2024/01/07 12:37:49;;;;;;;6.82;4.20;;;22.30;34.30;;;;;;4945699;28;20531;-60
2024/01/07 12:40:16;;;;;;;5.30;3.78;;;22.30;34.30;;;;;;4949950;28;20059;-60
2024/01/07 12:42:45;;;;;;;9.68;4.82;;;22.30;34.10;;;;;;4951674;28;20066;-58
2024/01/07 12:45:14;;;;;;;7.07;4.60;;;22.30;34.20;;;;;;4948831;29;20043;-60
2024/01/07 12:47:42;;;;;;;6.32;4.65;;;22.40;34.20;;;;;;4950055;28;20059;-60
2024/01/07 12:50:10;;;;;;;6.03;3.90;;;22.40;34.10;;;;;;4947109;29;20455;-60